createdAt,value
2019-03-22T00:00:50.288Z,39.70
2019-03-22T00:03:52.548Z,39.90
2019-03-22T00:06:54.824Z,39.80
2019-03-22T00:09:57.101Z,39.70
2019-03-22T00:12:59.849Z,39.70
2019-03-22T00:16:02.103Z,39.80
2019-03-22T00:19:04.306Z,39.60
2019-03-22T00:22:06.510Z,39.80
2019-03-22T00:25:09.209Z,39.70
2019-03-22T00:28:11.355Z,39.80
2019-03-22T00:31:14.813Z,39.70
2019-03-22T00:34:16.959Z,39.80
2019-03-22T00:37:19.108Z,39.80
2019-03-22T00:40:21.389Z,39.80
2019-03-22T00:43:23.539Z,39.70
2019-03-22T00:46:25.797Z,39.80
2019-03-22T00:49:27.960Z,39.80
2019-03-22T00:52:30.105Z,39.80
2019-03-22T00:55:32.337Z,39.70
2019-03-22T00:58:34.489Z,39.80
2019-03-22T01:01:36.641Z,39.70
2019-03-22T01:04:38.801Z,39.80
2019-03-22T01:07:41.098Z,39.80
2019-03-22T01:10:43.252Z,39.80
2019-03-22T01:13:45.484Z,39.90
2019-03-22T01:16:47.633Z,39.80
2019-03-22T01:19:49.971Z,39.90
2019-03-22T01:22:53.781Z,39.90
2019-03-22T01:25:55.943Z,39.80
2019-03-22T01:28:58.195Z,39.80
2019-03-22T01:32:00.422Z,39.90
2019-03-22T01:35:02.694Z,40.40
2019-03-22T01:38:04.993Z,39.80
2019-03-22T01:41:07.173Z,39.90
2019-03-22T01:44:09.410Z,40.00
2019-03-22T01:47:11.662Z,40.10
2019-03-22T01:50:14.918Z,40.10
2019-03-22T01:53:17.083Z,40.10
2019-03-22T01:56:19.362Z,40.20
2019-03-22T01:59:21.546Z,40.20
2019-03-22T02:02:24.122Z,40.20
2019-03-22T02:05:26.317Z,40.20
2019-03-22T02:08:28.485Z,40.20
2019-03-22T02:11:30.657Z,40.30
2019-03-22T02:14:32.833Z,40.30
2019-03-22T02:17:35.056Z,40.30
2019-03-22T02:20:37.195Z,40.30
2019-03-22T02:23:39.427Z,40.30
2019-03-22T02:26:41.581Z,40.40
2019-03-22T02:29:44.522Z,40.40
2019-03-22T02:32:46.782Z,40.40
2019-03-22T02:35:48.960Z,40.40
2019-03-22T02:38:51.138Z,40.40
2019-03-22T02:41:53.407Z,40.40
2019-03-22T02:44:55.580Z,40.50
2019-03-22T02:47:57.750Z,40.50
2019-03-22T02:50:59.926Z,40.50
2019-03-22T02:54:02.230Z,40.50
2019-03-22T02:57:05.519Z,40.50
2019-03-22T03:00:09.396Z,40.50
2019-03-22T03:03:11.585Z,40.50
2019-03-22T03:06:13.804Z,40.60
2019-03-22T03:09:15.982Z,40.60
2019-03-22T03:12:18.156Z,40.60
2019-03-22T03:15:20.547Z,40.60
2019-03-22T03:18:22.778Z,40.60
2019-03-22T03:21:24.951Z,40.60
2019-03-22T03:24:27.105Z,40.70
2019-03-22T03:27:29.330Z,40.60
2019-03-22T03:30:31.641Z,40.70
2019-03-22T03:33:33.816Z,40.70
2019-03-22T03:36:35.951Z,40.80
2019-03-22T03:39:38.114Z,40.70
2019-03-22T03:42:40.348Z,40.70
2019-03-22T03:45:42.569Z,40.80
2019-03-22T03:48:44.796Z,40.80
2019-03-22T03:51:47.058Z,40.90
2019-03-22T03:54:49.304Z,40.90
2019-03-22T03:57:51.521Z,40.90
2019-03-22T04:00:53.717Z,40.90
2019-03-22T04:03:55.908Z,41.00
2019-03-22T04:06:58.062Z,41.10
2019-03-22T04:10:00.272Z,41.00
2019-03-22T04:13:02.761Z,41.00
2019-03-22T04:16:04.921Z,41.00
2019-03-22T04:19:07.190Z,41.10
2019-03-22T04:22:12.479Z,41.10
2019-03-22T04:25:14.713Z,41.10
2019-03-22T04:28:19.207Z,41.10
2019-03-22T04:31:21.390Z,41.10
2019-03-22T04:34:23.591Z,41.10
2019-03-22T04:37:25.763Z,41.20
2019-03-22T04:40:29.254Z,41.20
2019-03-22T04:43:31.467Z,41.20
2019-03-22T04:46:34.152Z,41.20
2019-03-22T04:49:37.978Z,41.10
2019-03-22T04:52:40.163Z,41.20
2019-03-22T04:55:45.330Z,41.20
2019-03-22T04:58:50.044Z,41.20
2019-03-22T05:01:54.933Z,41.20
2019-03-22T05:04:57.492Z,41.30
2019-03-22T05:08:00.260Z,41.20
2019-03-22T05:11:04.129Z,41.20
2019-03-22T05:14:07.820Z,41.70
2019-03-22T05:17:11.022Z,41.30
2019-03-22T05:20:14.057Z,41.30
2019-03-22T05:23:17.925Z,41.30
2019-03-22T05:26:21.691Z,41.30
2019-03-22T05:29:30.470Z,41.40
2019-03-22T05:32:29.135Z,41.40
2019-03-22T05:35:31.297Z,41.30
2019-03-22T05:38:33.429Z,41.30
2019-03-22T05:41:35.568Z,41.30
2019-03-22T05:44:37.743Z,41.30
2019-03-22T05:47:39.932Z,41.20
2019-03-22T05:50:42.068Z,41.40
2019-03-22T05:53:44.248Z,41.30
2019-03-22T05:56:46.378Z,41.30
2019-03-22T05:59:48.536Z,41.30
2019-03-22T06:02:51.887Z,41.30
2019-03-22T06:05:54.007Z,41.30
2019-03-22T06:08:56.128Z,41.30
2019-03-22T06:11:58.309Z,41.20
2019-03-22T06:15:01.111Z,41.40
2019-03-22T06:18:03.324Z,41.30
2019-03-22T06:21:05.476Z,41.20
2019-03-22T06:24:07.609Z,41.30
2019-03-22T06:27:10.622Z,41.30
2019-03-22T06:30:13.685Z,41.50
2019-03-22T06:33:15.838Z,41.70
2019-03-22T06:36:17.981Z,41.80
2019-03-22T06:39:20.112Z,41.80
2019-03-22T06:42:22.274Z,41.60
2019-03-22T06:45:24.446Z,41.60
2019-03-22T06:48:26.585Z,41.50
2019-03-22T06:51:28.806Z,41.70
2019-03-22T06:54:32.112Z,41.80
2019-03-22T06:57:34.307Z,41.90
2019-03-22T07:00:36.432Z,42.00
2019-03-22T07:03:38.640Z,42.00
2019-03-22T07:06:40.795Z,42.00
2019-03-22T07:09:42.956Z,42.10
2019-03-22T07:12:45.193Z,42.20
2019-03-22T07:15:47.339Z,42.20
2019-03-22T07:18:49.500Z,42.30
2019-03-22T07:21:51.711Z,42.20
2019-03-22T07:24:53.903Z,42.20
2019-03-22T07:27:56.079Z,42.30
2019-03-22T07:30:58.265Z,42.30
2019-03-22T07:34:00.445Z,42.40
2019-03-22T07:37:04.277Z,42.50
2019-03-22T07:40:07.407Z,42.50
2019-03-22T07:43:09.583Z,42.40
2019-03-22T07:46:11.846Z,42.50
2019-03-22T07:49:14.051Z,42.60
2019-03-22T07:52:16.206Z,42.70
2019-03-22T07:55:18.340Z,42.70
2019-03-22T07:58:20.520Z,42.70
2019-03-22T08:01:22.686Z,42.70
2019-03-22T08:04:24.938Z,42.70
2019-03-22T08:07:27.095Z,42.80
2019-03-22T08:10:29.289Z,42.90
2019-03-22T08:13:31.472Z,42.80
2019-03-22T08:16:33.688Z,42.90
2019-03-22T08:19:35.893Z,42.80
2019-03-22T08:22:38.043Z,42.50
2019-03-22T08:25:40.291Z,42.60
2019-03-22T08:28:42.467Z,42.60
2019-03-22T08:31:44.641Z,42.70
2019-03-22T08:34:47.848Z,42.70
2019-03-22T08:37:52.945Z,42.70
2019-03-22T08:40:53.982Z,42.80
2019-03-22T08:43:56.167Z,42.80
2019-03-22T08:46:58.382Z,42.80
2019-03-22T08:50:00.671Z,42.90
2019-03-22T08:53:02.927Z,43.00
2019-03-22T08:56:05.162Z,43.10
2019-03-22T08:59:08.430Z,43.20
2019-03-22T09:02:10.628Z,43.20
2019-03-22T09:05:13.176Z,43.20
2019-03-22T09:08:16.208Z,43.30
2019-03-22T09:11:18.539Z,43.40
2019-03-22T09:14:20.861Z,43.40
2019-03-22T09:17:23.275Z,43.50
2019-03-22T09:20:25.532Z,43.60
2019-03-22T09:23:27.715Z,43.60
2019-03-22T09:26:29.873Z,43.70
2019-03-22T09:29:32.156Z,43.70
2019-03-22T09:32:34.448Z,43.70
2019-03-22T09:35:36.791Z,43.90
2019-03-22T09:38:38.995Z,43.90
2019-03-22T09:41:41.236Z,43.80
2019-03-22T09:44:44.499Z,43.80
2019-03-22T09:47:47.496Z,43.90
2019-03-22T09:50:49.769Z,43.80
2019-03-22T09:53:51.988Z,43.80
2019-03-22T09:56:54.179Z,43.90
2019-03-22T09:59:56.351Z,43.90
2019-03-22T10:02:58.689Z,43.80
2019-03-22T10:06:00.889Z,43.90
2019-03-22T10:09:05.493Z,43.90
2019-03-22T10:12:07.952Z,43.80
2019-03-22T10:15:10.400Z,43.90
2019-03-22T10:18:12.819Z,43.90
2019-03-22T10:21:22.467Z,44.00
2019-03-22T10:24:18.864Z,43.80
2019-03-22T10:27:21.070Z,43.80
2019-03-22T10:30:23.293Z,43.70
2019-03-22T10:33:25.525Z,43.70
2019-03-22T10:36:27.733Z,44.10
2019-03-22T10:39:29.941Z,43.40
2019-03-22T10:42:32.206Z,43.20
2019-03-22T10:45:34.474Z,43.00
2019-03-22T10:48:36.674Z,42.80
2019-03-22T10:51:38.907Z,42.70
2019-03-22T10:54:41.166Z,42.50
2019-03-22T10:57:43.431Z,42.40
2019-03-22T11:00:45.718Z,42.20
2019-03-22T11:03:48.057Z,42.10
2019-03-22T11:06:50.509Z,41.90
2019-03-22T11:09:52.790Z,41.70
2019-03-22T11:12:56.680Z,41.50
2019-03-22T11:16:00.559Z,41.60
2019-03-22T11:19:02.838Z,41.10
2019-03-22T11:22:05.066Z,40.90
2019-03-22T11:25:08.178Z,40.90
2019-03-22T11:28:12.067Z,41.40
2019-03-22T11:31:15.518Z,41.40
2019-03-22T11:34:17.754Z,40.90
2019-03-22T11:37:20.045Z,40.60
2019-03-22T11:40:22.604Z,40.50
2019-03-22T11:43:25.694Z,40.40
2019-03-22T11:46:27.962Z,39.70
2019-03-22T11:49:30.219Z,39.60
2019-03-22T11:52:32.447Z,39.50
2019-03-22T11:55:34.694Z,39.70
2019-03-22T11:58:36.955Z,39.50
2019-03-22T12:01:39.199Z,39.20
2019-03-22T12:04:41.503Z,39.00
2019-03-22T12:07:43.746Z,38.90
2019-03-22T12:10:45.997Z,38.70
2019-03-22T12:13:48.240Z,38.60
2019-03-22T12:16:50.485Z,38.60
2019-03-22T12:19:52.779Z,38.40
2019-03-22T12:22:55.014Z,38.30
2019-03-22T12:25:57.268Z,38.20
2019-03-22T12:28:59.525Z,38.00
2019-03-22T12:32:01.765Z,38.00
2019-03-22T12:35:04.241Z,37.70
2019-03-22T12:38:06.583Z,37.60
2019-03-22T12:41:08.852Z,37.30
2019-03-22T12:44:12.167Z,37.10
2019-03-22T12:47:14.412Z,37.00
2019-03-22T12:50:16.857Z,36.80
2019-03-22T12:53:19.139Z,36.70
2019-03-22T12:56:21.486Z,36.30
2019-03-22T12:59:23.721Z,35.70
2019-03-22T13:02:26.059Z,35.40
2019-03-22T13:05:28.393Z,34.90
2019-03-22T13:08:30.613Z,34.30
2019-03-22T13:11:32.864Z,34.10
2019-03-22T13:14:35.126Z,34.40
2019-03-22T13:17:37.375Z,33.60
2019-03-22T13:20:39.692Z,33.20
2019-03-22T13:23:41.959Z,32.80
2019-03-22T13:26:44.207Z,32.40
2019-03-22T13:29:46.492Z,32.40
2019-03-22T13:32:52.281Z,32.10
2019-03-22T13:35:52.709Z,31.80
2019-03-22T13:38:54.967Z,31.40
2019-03-22T13:41:57.242Z,31.10
2019-03-22T13:44:59.462Z,30.90
2019-03-22T13:48:01.724Z,30.60
2019-03-22T13:51:03.973Z,30.20
2019-03-22T13:54:06.244Z,29.90
2019-03-22T13:57:08.503Z,29.70
2019-03-22T14:00:11.442Z,29.20
2019-03-22T14:03:13.771Z,29.10
2019-03-22T14:06:16.008Z,29.00
2019-03-22T14:09:18.258Z,28.40
2019-03-22T14:12:20.516Z,28.10
2019-03-22T14:15:22.823Z,28.00
2019-03-22T14:18:25.073Z,27.80
2019-03-22T14:21:27.311Z,27.70
2019-03-22T14:24:29.544Z,27.30
2019-03-22T14:27:31.749Z,27.20
2019-03-22T14:30:33.981Z,26.90
2019-03-22T14:33:36.230Z,26.80
2019-03-22T14:36:38.463Z,26.70
2019-03-22T14:39:41.814Z,26.50
2019-03-22T14:42:44.071Z,26.30
2019-03-22T14:45:46.315Z,26.00
2019-03-22T14:48:48.556Z,25.40
2019-03-22T14:51:50.809Z,24.60
2019-03-22T14:54:53.045Z,24.70
2019-03-22T14:57:55.286Z,23.60
2019-03-22T15:00:57.587Z,23.90
2019-03-22T15:03:59.884Z,24.20
2019-03-22T15:07:02.162Z,24.50
2019-03-22T15:10:05.445Z,24.00
2019-03-22T15:13:07.811Z,23.60
2019-03-22T15:16:19.823Z,23.30
2019-03-22T15:19:42.697Z,23.50
2019-03-22T15:23:16.068Z,23.50
2019-03-22T15:26:35.815Z,23.60
2019-03-22T15:29:59.797Z,22.60
2019-03-22T15:33:34.429Z,23.80
2019-03-22T15:36:52.780Z,23.80
2019-03-22T15:40:04.995Z,22.40
2019-03-22T15:43:07.651Z,23.80
2019-03-22T15:46:09.903Z,23.10
2019-03-22T15:49:12.175Z,22.90
2019-03-22T15:52:14.417Z,24.20
2019-03-22T15:55:16.635Z,24.50
2019-03-22T15:58:18.866Z,23.80
2019-03-22T16:01:21.177Z,23.70
2019-03-22T16:04:23.440Z,23.50
2019-03-22T16:07:25.755Z,23.20
2019-03-22T16:10:28.009Z,23.00
2019-03-22T16:13:30.255Z,22.60
2019-03-22T16:16:32.520Z,22.60
2019-03-22T16:19:34.801Z,23.20
2019-03-22T16:22:37.086Z,23.10
2019-03-22T16:25:39.352Z,23.20
2019-03-22T16:28:41.691Z,23.10
2019-03-22T16:31:43.973Z,22.90
2019-03-22T16:34:46.237Z,22.50
2019-03-22T16:37:48.520Z,23.40
2019-03-22T16:40:50.817Z,22.80
2019-03-22T16:43:53.198Z,22.60
2019-03-22T16:46:55.467Z,22.90
2019-03-22T16:49:57.741Z,22.90
2019-03-22T16:53:05.958Z,23.20
2019-03-22T16:56:08.210Z,23.50
2019-03-22T16:59:10.456Z,23.40
2019-03-22T17:02:12.841Z,23.80
2019-03-22T17:05:15.403Z,24.10
2019-03-22T17:08:17.651Z,24.20
2019-03-22T17:11:19.896Z,24.80
2019-03-22T17:14:22.173Z,25.60
2019-03-22T17:17:24.411Z,25.50
2019-03-22T17:20:26.676Z,25.70
2019-03-22T17:23:29.002Z,26.40
2019-03-22T17:26:31.226Z,26.40
2019-03-22T17:29:33.519Z,26.70
2019-03-22T17:32:35.810Z,26.60
2019-03-22T17:35:38.101Z,27.70
2019-03-22T17:38:40.350Z,28.30
2019-03-22T17:41:42.615Z,28.50
2019-03-22T17:44:45.922Z,28.70
2019-03-22T17:47:48.331Z,28.90
2019-03-22T17:50:50.670Z,29.00
2019-03-22T17:53:52.927Z,29.20
2019-03-22T17:56:55.177Z,29.30
2019-03-22T17:59:57.440Z,29.50
2019-03-22T18:02:59.738Z,29.60
2019-03-22T18:06:02.004Z,29.80
2019-03-22T18:09:05.937Z,29.80
2019-03-22T18:12:08.363Z,30.00
2019-03-22T18:15:10.780Z,30.10
2019-03-22T18:18:13.020Z,30.20
2019-03-22T18:21:15.274Z,30.40
2019-03-22T18:24:17.529Z,30.50
2019-03-22T18:27:19.880Z,31.40
2019-03-22T18:30:22.123Z,30.90
2019-03-22T18:33:24.395Z,31.20
2019-03-22T18:36:26.725Z,31.50
2019-03-22T18:39:29.138Z,31.70
2019-03-22T18:42:31.403Z,32.00
2019-03-22T18:45:33.677Z,32.30
2019-03-22T18:48:35.978Z,32.70
2019-03-22T18:51:38.234Z,32.90
2019-03-22T18:54:40.536Z,33.00
2019-03-22T18:57:42.751Z,33.20
2019-03-22T19:00:45.001Z,33.40
2019-03-22T19:03:47.295Z,33.60
2019-03-22T19:06:49.555Z,33.80
2019-03-22T19:09:51.814Z,34.00
2019-03-22T19:12:54.022Z,34.20
2019-03-22T19:15:57.437Z,34.40
2019-03-22T19:18:59.704Z,34.60
2019-03-22T19:22:01.937Z,34.80
2019-03-22T19:25:04.444Z,35.10
2019-03-22T19:28:06.799Z,35.30
2019-03-22T19:31:09.063Z,35.40
2019-03-22T19:34:11.315Z,35.60
2019-03-22T19:37:13.607Z,35.70
2019-03-22T19:40:16.319Z,35.80
2019-03-22T19:43:18.645Z,35.90
2019-03-22T19:46:20.996Z,35.90
2019-03-22T19:49:23.264Z,36.20
2019-03-22T19:52:25.578Z,36.20
2019-03-22T19:55:27.847Z,36.30
2019-03-22T19:58:30.101Z,36.40
2019-03-22T20:01:32.419Z,36.60
2019-03-22T20:04:34.786Z,36.50
2019-03-22T20:07:37.033Z,36.80
2019-03-22T20:10:41.537Z,36.70
2019-03-22T20:13:43.814Z,37.00
2019-03-22T20:16:46.106Z,37.10
2019-03-22T20:19:48.407Z,37.20
2019-03-22T20:22:50.725Z,37.40
2019-03-22T20:25:53.015Z,37.60
2019-03-22T20:28:55.285Z,37.70
2019-03-22T20:31:57.673Z,37.70
2019-03-22T20:34:59.948Z,37.70
2019-03-22T20:38:02.207Z,37.70
2019-03-22T20:41:05.580Z,37.80
2019-03-22T20:44:07.864Z,37.90
2019-03-22T20:47:10.107Z,37.90
2019-03-22T20:50:12.597Z,37.90
2019-03-22T20:53:14.997Z,37.90
2019-03-22T20:56:17.265Z,38.00
2019-03-22T20:59:19.556Z,38.00
2019-03-22T21:02:21.858Z,38.00
2019-03-22T21:05:27.216Z,38.20
2019-03-22T21:08:28.090Z,38.20
2019-03-22T21:11:30.355Z,38.30
2019-03-22T21:14:32.596Z,38.30
2019-03-22T21:17:34.851Z,38.40
2019-03-22T21:20:37.184Z,38.50
2019-03-22T21:23:40.569Z,38.40
2019-03-22T21:26:42.856Z,38.50
2019-03-22T21:29:45.148Z,38.60
2019-03-22T21:32:47.397Z,38.50
2019-03-22T21:35:49.737Z,38.60
2019-03-22T21:38:51.978Z,38.60
2019-03-22T21:41:54.233Z,39.00
2019-03-22T21:44:56.517Z,38.80
2019-03-22T21:47:58.810Z,38.80
2019-03-22T21:51:01.141Z,38.90
2019-03-22T21:54:03.380Z,38.90
2019-03-22T21:57:05.630Z,38.90
2019-03-22T22:00:08.245Z,39.00
2019-03-22T22:03:10.520Z,39.00
2019-03-22T22:06:12.778Z,39.10
2019-03-22T22:09:15.132Z,39.20
2019-03-22T22:12:17.453Z,39.10
2019-03-22T22:15:19.733Z,39.20
2019-03-22T22:18:21.984Z,39.30
2019-03-22T22:21:24.224Z,39.20
2019-03-22T22:24:26.491Z,39.30
2019-03-22T22:27:28.694Z,39.10
2019-03-22T22:30:31.031Z,39.30
2019-03-22T22:33:33.294Z,39.30
2019-03-22T22:36:35.575Z,39.30
2019-03-22T22:39:37.828Z,39.50
2019-03-22T22:42:40.013Z,39.60
2019-03-22T22:45:42.356Z,39.50
2019-03-22T22:48:44.632Z,39.60
2019-03-22T22:51:46.895Z,39.70
2019-03-22T22:54:49.171Z,39.70
2019-03-22T22:57:51.423Z,39.60
2019-03-22T23:00:53.784Z,39.60
2019-03-22T23:03:57.671Z,39.70
2019-03-22T23:07:00.016Z,39.60
2019-03-22T23:10:02.304Z,39.70
2019-03-22T23:13:04.650Z,39.70
2019-03-22T23:16:07.106Z,39.80
2019-03-22T23:19:09.385Z,39.80
2019-03-22T23:22:11.668Z,39.80
2019-03-22T23:25:14.027Z,39.80
2019-03-22T23:28:16.371Z,39.90
2019-03-22T23:31:18.660Z,40.00
2019-03-22T23:34:20.961Z,39.90
2019-03-22T23:37:23.339Z,40.00
2019-03-22T23:40:25.638Z,40.10
2019-03-22T23:43:27.958Z,39.90
2019-03-22T23:46:30.248Z,40.00
2019-03-22T23:49:32.485Z,40.00
2019-03-22T23:52:34.735Z,40.00
2019-03-22T23:55:37.270Z,40.20
2019-03-22T23:58:39.759Z,40.10
